createdAt,value
2019-02-05T00:01:54.210Z,2.50
2019-02-05T00:04:25.206Z,2.50
2019-02-05T00:06:56.245Z,2.50
2019-02-05T00:09:27.128Z,2.40
2019-02-05T00:11:58.023Z,2.40
2019-02-05T00:14:29.242Z,2.40
2019-02-05T00:17:01.221Z,2.40
2019-02-05T00:19:32.198Z,2.40
2019-02-05T00:22:04.542Z,2.40
2019-02-05T00:24:35.364Z,2.40
2019-02-05T00:27:06.324Z,2.40
2019-02-05T00:29:37.219Z,2.30
2019-02-05T00:32:08.107Z,2.30
2019-02-05T00:34:38.999Z,2.30
2019-02-05T00:37:09.905Z,2.40
2019-02-05T00:39:42.137Z,2.40
2019-02-05T00:42:13.035Z,2.40
2019-02-05T00:44:45.003Z,2.40
2019-02-05T00:47:15.935Z,2.40
2019-02-05T00:49:47.267Z,2.40
2019-02-05T00:52:18.570Z,2.40
2019-02-05T00:54:49.484Z,2.40
2019-02-05T00:57:20.351Z,2.30
2019-02-05T00:59:51.975Z,2.30
2019-02-05T01:02:23.502Z,2.30
2019-02-05T01:04:54.694Z,2.30
2019-02-05T01:07:25.637Z,2.30
2019-02-05T01:09:57.380Z,2.40
2019-02-05T01:12:28.976Z,2.40
2019-02-05T01:14:59.824Z,2.40
2019-02-05T01:17:32.214Z,2.40
2019-02-05T01:20:03.729Z,2.40
2019-02-05T01:22:35.206Z,2.30
2019-02-05T01:25:07.095Z,2.30
2019-02-05T01:27:37.945Z,2.30
2019-02-05T01:30:11.544Z,2.30
2019-02-05T01:32:42.526Z,2.30
2019-02-05T01:35:13.808Z,2.20
2019-02-05T01:37:44.694Z,2.20
2019-02-05T01:40:17.445Z,2.20
2019-02-05T01:42:48.430Z,2.20
2019-02-05T01:45:20.765Z,2.20
2019-02-05T01:47:53.240Z,2.20
2019-02-05T01:50:26.409Z,2.20
2019-02-05T01:52:57.752Z,2.20
2019-02-05T01:55:29.113Z,2.20
2019-02-05T01:58:00.399Z,2.20
2019-02-05T02:00:38.429Z,2.20
2019-02-05T02:03:09.584Z,2.20
2019-02-05T02:05:41.701Z,2.20
2019-02-05T02:08:14.683Z,2.20
2019-02-05T02:10:46.192Z,2.20
2019-02-05T02:13:17.497Z,2.20
2019-02-05T02:15:48.484Z,2.20
2019-02-05T02:18:19.734Z,2.20
2019-02-05T02:20:51.000Z,2.20
2019-02-05T02:23:21.875Z,2.20
2019-02-05T02:25:52.871Z,2.20
2019-02-05T02:28:23.754Z,2.20
2019-02-05T02:30:55.759Z,2.10
2019-02-05T02:33:26.942Z,2.20
2019-02-05T02:35:57.921Z,2.10
2019-02-05T02:38:28.863Z,2.10
2019-02-05T02:40:59.760Z,2.10
2019-02-05T02:43:31.781Z,2.10
2019-02-05T02:46:02.649Z,2.10
2019-02-05T02:48:34.619Z,2.20
2019-02-05T02:51:05.787Z,2.20
2019-02-05T02:53:36.706Z,2.20
2019-02-05T02:56:07.726Z,2.20
2019-02-05T02:58:38.627Z,2.20
2019-02-05T03:01:09.956Z,2.20
2019-02-05T03:03:40.898Z,2.20
2019-02-05T03:06:11.757Z,2.20
2019-02-05T03:08:43.055Z,2.20
2019-02-05T03:11:13.932Z,2.20
2019-02-05T03:13:44.798Z,2.30
2019-02-05T03:16:15.704Z,2.30
2019-02-05T03:18:46.675Z,2.30
2019-02-05T03:21:17.638Z,2.30
2019-02-05T03:23:48.508Z,2.30
2019-02-05T03:26:19.495Z,2.30
2019-02-05T03:28:51.397Z,2.30
2019-02-05T03:31:22.631Z,2.30
2019-02-05T03:33:53.826Z,2.30
2019-02-05T03:36:26.428Z,2.30
2019-02-05T03:38:57.379Z,2.30
2019-02-05T03:41:28.668Z,2.40
2019-02-05T03:43:59.653Z,2.40
2019-02-05T03:46:30.767Z,2.30
2019-02-05T03:49:01.810Z,2.40
2019-02-05T03:52:08.837Z,2.40
2019-02-05T03:55:12.290Z,2.40
2019-02-05T03:58:39.490Z,2.40
2019-02-05T04:01:48.182Z,2.40
2019-02-05T04:04:36.629Z,2.40
2019-02-05T04:07:31.325Z,2.40
2019-02-05T04:10:44.763Z,2.40
2019-02-05T04:13:37.795Z,2.40
2019-02-05T04:16:55.549Z,2.50
2019-02-05T04:20:09.640Z,2.50
2019-02-05T04:23:30.573Z,2.50
2019-02-05T04:26:26.794Z,2.60
2019-02-05T04:29:33.679Z,2.60
2019-02-05T04:32:23.389Z,2.60
2019-02-05T04:35:32.412Z,2.60
2019-02-05T04:38:44.184Z,2.60
2019-02-05T04:41:23.773Z,2.60
2019-02-05T04:44:39.521Z,2.60
2019-02-05T04:47:41.391Z,2.60
2019-02-05T04:50:43.945Z,2.60
2019-02-05T04:53:29.413Z,2.60
2019-02-05T04:56:24.828Z,2.70
2019-02-05T04:59:17.791Z,2.70
2019-02-05T05:02:30.009Z,2.70
2019-02-05T05:05:33.810Z,2.70
2019-02-05T05:08:42.991Z,2.70
2019-02-05T05:11:15.237Z,2.70
2019-02-05T05:13:46.123Z,2.70
2019-02-05T05:16:17.051Z,2.70
2019-02-05T05:18:48.101Z,2.70
2019-02-05T05:21:21.024Z,2.70
2019-02-05T05:23:52.012Z,2.70
2019-02-05T05:26:24.964Z,2.60
2019-02-05T05:28:56.059Z,2.60
2019-02-05T05:31:27.221Z,2.60
2019-02-05T05:33:58.101Z,2.60
2019-02-05T05:36:28.996Z,2.60
2019-02-05T05:39:00.365Z,2.60
2019-02-05T05:41:31.361Z,2.60
2019-02-05T05:44:02.234Z,2.60
2019-02-05T05:46:33.275Z,2.60
2019-02-05T05:49:04.826Z,2.60
2019-02-05T05:51:35.721Z,2.60
2019-02-05T05:54:06.595Z,2.70
2019-02-05T05:56:37.603Z,2.60
2019-02-05T05:59:08.589Z,2.60
2019-02-05T06:01:39.454Z,2.60
2019-02-05T06:04:10.972Z,2.70
2019-02-05T06:06:42.099Z,2.60
2019-02-05T06:09:12.976Z,2.60
2019-02-05T06:11:43.876Z,2.60
2019-02-05T06:14:14.765Z,2.60
2019-02-05T06:16:46.928Z,2.60
2019-02-05T06:19:17.937Z,2.60
2019-02-05T06:21:50.829Z,2.60
2019-02-05T06:24:21.824Z,2.60
2019-02-05T06:26:52.714Z,2.60
2019-02-05T06:29:23.615Z,2.70
2019-02-05T06:31:55.973Z,2.70
2019-02-05T06:34:27.257Z,2.60
2019-02-05T06:36:58.313Z,2.70
2019-02-05T06:39:29.291Z,2.70
2019-02-05T06:42:00.291Z,2.70
2019-02-05T06:44:31.181Z,2.70
2019-02-05T06:47:02.066Z,2.70
2019-02-05T06:49:32.952Z,2.70
2019-02-05T06:52:03.860Z,2.70
2019-02-05T06:54:34.727Z,2.70
2019-02-05T06:57:05.998Z,2.70
2019-02-05T06:59:36.872Z,2.70
2019-02-05T07:02:09.038Z,2.70
2019-02-05T07:04:40.300Z,2.70
2019-02-05T07:07:11.336Z,2.70
2019-02-05T07:09:42.252Z,2.70
2019-02-05T07:12:13.153Z,2.70
2019-02-05T07:14:44.103Z,2.70
2019-02-05T07:17:15.330Z,2.70
2019-02-05T07:19:46.231Z,2.70
2019-02-05T07:22:17.143Z,2.70
2019-02-05T07:25:00.822Z,2.70
2019-02-05T07:27:31.977Z,2.70
2019-02-05T07:30:02.910Z,2.70
2019-02-05T07:32:35.020Z,2.70
2019-02-05T07:35:07.063Z,2.70
2019-02-05T07:37:38.012Z,2.70
2019-02-05T07:40:11.336Z,2.70
2019-02-05T07:42:42.589Z,2.70
2019-02-05T07:45:15.818Z,2.70
2019-02-05T07:47:48.028Z,2.70
2019-02-05T07:50:21.428Z,2.70
2019-02-05T07:52:52.304Z,2.70
2019-02-05T07:55:23.330Z,2.70
2019-02-05T07:57:54.338Z,2.70
2019-02-05T08:00:27.037Z,2.70
2019-02-05T08:02:58.367Z,2.70
2019-02-05T08:05:32.093Z,2.70
2019-02-05T08:08:04.418Z,2.70
2019-02-05T08:10:37.283Z,2.70
2019-02-05T08:13:10.995Z,2.70
2019-02-05T08:15:41.883Z,2.70
2019-02-05T08:18:12.797Z,2.70
2019-02-05T08:20:43.741Z,2.70
2019-02-05T08:23:14.664Z,2.70
2019-02-05T08:25:45.955Z,2.70
2019-02-05T08:28:16.841Z,2.70
2019-02-05T08:30:49.302Z,2.70
2019-02-05T08:33:20.217Z,2.70
2019-02-05T08:35:51.123Z,2.80
2019-02-05T08:38:23.115Z,2.80
2019-02-05T08:40:54.037Z,2.80
2019-02-05T08:43:24.937Z,2.80
2019-02-05T08:45:56.924Z,2.80
2019-02-05T08:48:28.084Z,2.80
2019-02-05T08:50:58.992Z,2.80
2019-02-05T08:53:31.435Z,2.80
2019-02-05T08:56:03.812Z,2.80
2019-02-05T08:58:36.393Z,2.80
2019-02-05T09:01:07.723Z,2.80
2019-02-05T09:03:38.615Z,2.80
2019-02-05T09:06:10.483Z,2.90
2019-02-05T09:08:41.529Z,2.90
2019-02-05T09:11:13.993Z,2.90
2019-02-05T09:13:46.174Z,2.90
2019-02-05T09:16:17.532Z,2.90
2019-02-05T09:18:49.076Z,3.00
2019-02-05T09:21:20.309Z,3.00
2019-02-05T09:23:51.723Z,3.00
2019-02-05T09:26:27.615Z,3.10
2019-02-05T09:28:58.688Z,3.10
2019-02-05T09:31:29.578Z,3.10
2019-02-05T09:34:00.910Z,3.10
2019-02-05T09:36:31.906Z,3.10
2019-02-05T09:39:03.263Z,3.20
2019-02-05T09:41:34.299Z,3.20
2019-02-05T09:44:05.437Z,3.20
2019-02-05T09:46:36.442Z,3.20
2019-02-05T09:49:07.971Z,3.20
2019-02-05T09:51:38.871Z,3.30
2019-02-05T09:54:09.794Z,3.20
2019-02-05T09:56:40.720Z,3.20
2019-02-05T09:59:11.605Z,3.20
2019-02-05T10:01:42.658Z,3.30
2019-02-05T10:04:13.597Z,3.30
2019-02-05T10:06:45.146Z,3.20
2019-02-05T10:09:16.249Z,3.20
2019-02-05T10:11:47.193Z,3.20
2019-02-05T10:14:18.129Z,3.20
2019-02-05T10:16:50.727Z,3.10
2019-02-05T10:19:21.612Z,3.20
2019-02-05T10:21:52.613Z,3.20
2019-02-05T10:24:23.661Z,3.20
2019-02-05T10:26:54.674Z,3.20
2019-02-05T10:29:25.614Z,3.30
2019-02-05T10:31:56.787Z,3.30
2019-02-05T10:34:34.318Z,3.30
2019-02-05T10:37:00.937Z,3.30
2019-02-05T10:39:31.891Z,3.30
2019-02-05T10:42:02.990Z,3.30
2019-02-05T10:44:33.899Z,3.30
2019-02-05T10:47:05.456Z,3.30
2019-02-05T10:49:37.376Z,3.40
2019-02-05T10:52:08.259Z,3.40
2019-02-05T10:54:39.241Z,3.40
2019-02-05T10:57:10.138Z,3.40
2019-02-05T10:59:42.511Z,3.40
2019-02-05T11:02:13.930Z,3.40
2019-02-05T11:04:44.921Z,3.50
2019-02-05T11:07:16.434Z,3.50
2019-02-05T11:09:47.582Z,3.40
2019-02-05T11:12:19.761Z,3.50
2019-02-05T11:14:50.848Z,3.50
2019-02-05T11:17:21.767Z,3.50
2019-02-05T11:19:53.910Z,3.50
2019-02-05T11:22:24.799Z,3.50
2019-02-05T11:24:56.857Z,3.50
2019-02-05T11:27:27.921Z,3.50
2019-02-05T11:29:58.849Z,3.50
2019-02-05T11:32:30.857Z,3.50
2019-02-05T11:35:01.763Z,3.60
2019-02-05T11:37:32.722Z,3.60
2019-02-05T11:40:03.786Z,3.60
2019-02-05T11:42:34.733Z,3.60
2019-02-05T11:45:08.229Z,3.60
2019-02-05T11:47:39.285Z,3.60
2019-02-05T11:50:11.748Z,3.60
2019-02-05T11:52:43.757Z,3.70
2019-02-05T11:55:16.859Z,3.70
2019-02-05T11:57:47.838Z,3.60
2019-02-05T12:00:41.906Z,3.60
2019-02-05T12:03:13.007Z,3.70
2019-02-05T12:05:43.991Z,3.70
2019-02-05T12:08:18.644Z,3.70
2019-02-05T12:10:49.313Z,3.70
2019-02-05T12:13:21.583Z,3.70
2019-02-05T12:15:52.596Z,3.70
2019-02-05T12:18:23.794Z,3.70
2019-02-05T12:20:54.682Z,3.70
2019-02-05T12:23:26.449Z,3.70
2019-02-05T12:25:57.345Z,3.70
2019-02-05T12:28:28.372Z,3.70
2019-02-05T12:31:00.570Z,3.70
2019-02-05T12:33:31.662Z,3.70
2019-02-05T12:36:02.577Z,3.70
2019-02-05T12:38:33.457Z,3.70
2019-02-05T12:41:04.558Z,3.80
2019-02-05T12:43:35.412Z,3.80
2019-02-05T12:46:06.452Z,3.80
2019-02-05T12:48:37.327Z,3.80
2019-02-05T12:51:08.199Z,3.80
2019-02-05T12:53:39.137Z,3.90
2019-02-05T12:56:10.086Z,3.90
2019-02-05T12:58:41.066Z,3.80
2019-02-05T13:01:12.245Z,3.80
2019-02-05T13:03:43.146Z,3.80
2019-02-05T13:06:14.113Z,3.90
2019-02-05T13:08:45.403Z,3.90
2019-02-05T13:11:16.484Z,3.90
2019-02-05T13:13:48.441Z,3.90
2019-02-05T13:16:19.361Z,3.90
2019-02-05T13:18:51.986Z,3.90
2019-02-05T13:21:22.909Z,3.90
2019-02-05T13:23:56.195Z,3.90
2019-02-05T13:26:28.689Z,3.90
2019-02-05T13:28:59.598Z,3.90
2019-02-05T13:31:30.622Z,3.90
2019-02-05T13:34:01.568Z,3.90
2019-02-05T13:36:33.943Z,3.90
2019-02-05T13:39:09.314Z,3.90
2019-02-05T13:41:40.180Z,3.90
2019-02-05T13:44:11.141Z,3.90
2019-02-05T13:46:42.185Z,3.90
2019-02-05T13:49:13.734Z,3.90
2019-02-05T13:51:44.802Z,3.90
2019-02-05T13:54:15.754Z,3.90
2019-02-05T13:56:46.744Z,3.90
2019-02-05T13:59:17.636Z,4.00
2019-02-05T14:01:48.542Z,4.00
2019-02-05T14:04:19.679Z,4.00
2019-02-05T14:06:50.758Z,4.00
2019-02-05T14:09:22.301Z,4.00
2019-02-05T14:11:53.334Z,4.00
2019-02-05T14:14:26.427Z,4.00
2019-02-05T14:16:57.996Z,4.00
2019-02-05T14:19:29.120Z,4.00
2019-02-05T14:22:00.032Z,4.00
2019-02-05T14:24:31.041Z,4.10
2019-02-05T14:27:02.068Z,4.10
2019-02-05T14:29:32.923Z,4.10
2019-02-05T14:32:04.843Z,4.10
2019-02-05T14:34:35.729Z,4.20
2019-02-05T14:37:06.854Z,4.20
2019-02-05T14:39:37.854Z,4.20
2019-02-05T14:42:08.750Z,4.20
2019-02-05T14:44:39.793Z,4.20
2019-02-05T14:47:10.686Z,4.20
2019-02-05T14:49:42.693Z,4.30
2019-02-05T14:52:13.729Z,4.30
2019-02-05T14:54:45.658Z,4.30
2019-02-05T14:57:16.731Z,4.20
2019-02-05T14:59:47.615Z,4.30
2019-02-05T15:02:18.628Z,4.20
2019-02-05T15:04:49.526Z,4.20
2019-02-05T15:07:20.461Z,4.30
2019-02-05T15:09:52.899Z,4.30
2019-02-05T15:12:23.957Z,4.30
2019-02-05T15:14:56.583Z,4.20
2019-02-05T15:17:28.546Z,4.20
2019-02-05T15:19:59.459Z,4.20
2019-02-05T15:22:30.552Z,4.20
2019-02-05T15:25:01.552Z,4.20
2019-02-05T15:27:32.566Z,4.20
2019-02-05T15:30:04.278Z,4.20
2019-02-05T15:32:45.865Z,4.20
2019-02-05T15:35:16.962Z,4.20
2019-02-05T15:37:47.931Z,4.20
2019-02-05T15:40:19.332Z,4.20
2019-02-05T15:42:50.319Z,4.20
2019-02-05T15:45:22.451Z,4.20
2019-02-05T15:47:53.331Z,4.20
2019-02-05T15:50:24.260Z,4.20
2019-02-05T15:52:55.162Z,4.10
2019-02-05T15:55:26.173Z,4.10
2019-02-05T15:57:57.984Z,4.10
2019-02-05T16:00:29.208Z,4.10
2019-02-05T16:03:00.111Z,4.10
2019-02-05T16:05:31.017Z,4.10
2019-02-05T16:08:02.008Z,4.10
2019-02-05T16:10:33.592Z,4.10
2019-02-05T16:13:05.062Z,4.00
2019-02-05T16:15:36.464Z,4.10
2019-02-05T16:18:08.161Z,4.10
2019-02-05T16:20:39.148Z,4.10
2019-02-05T16:23:10.035Z,4.10
2019-02-05T16:25:41.248Z,4.10
2019-02-05T16:28:12.167Z,4.00
2019-02-05T16:30:44.112Z,4.10
2019-02-05T16:33:15.151Z,4.10
2019-02-05T16:35:46.165Z,4.10
2019-02-05T16:38:20.425Z,4.10
2019-02-05T16:40:51.834Z,4.10
2019-02-05T16:43:23.410Z,4.10
2019-02-05T16:45:54.670Z,4.00
2019-02-05T16:48:25.596Z,4.10
2019-02-05T16:50:56.873Z,4.00
2019-02-05T16:53:27.917Z,4.00
2019-02-05T16:55:59.927Z,4.00
2019-02-05T16:58:31.043Z,4.00
2019-02-05T17:01:03.677Z,4.00
2019-02-05T17:03:35.173Z,4.00
2019-02-05T17:06:06.361Z,4.00
2019-02-05T17:08:38.321Z,4.00
2019-02-05T17:11:10.035Z,4.00
2019-02-05T17:13:41.100Z,4.00
2019-02-05T17:16:13.681Z,4.00
2019-02-05T17:18:44.702Z,4.00
2019-02-05T17:21:15.648Z,4.00
2019-02-05T17:23:46.744Z,3.90
2019-02-05T17:26:17.661Z,3.90
2019-02-05T17:28:48.604Z,3.90
2019-02-05T17:31:19.665Z,3.90
2019-02-05T17:33:50.649Z,3.90
2019-02-05T17:36:21.575Z,3.80
2019-02-05T17:38:53.186Z,3.80
2019-02-05T17:41:24.321Z,3.80
2019-02-05T17:43:56.781Z,3.90
2019-02-05T17:46:27.922Z,3.90
2019-02-05T17:48:58.939Z,3.90
2019-02-05T17:51:31.323Z,3.90
2019-02-05T17:54:02.309Z,3.90
2019-02-05T17:56:33.550Z,3.80
2019-02-05T17:59:04.806Z,3.90
2019-02-05T18:01:35.926Z,3.90
2019-02-05T18:04:06.884Z,3.90
2019-02-05T18:06:37.864Z,3.90
2019-02-05T18:09:10.126Z,3.90
2019-02-05T18:11:42.438Z,3.90
2019-02-05T18:14:13.647Z,4.00
2019-02-05T18:16:45.953Z,4.00
2019-02-05T18:19:16.856Z,4.00
2019-02-05T18:21:47.945Z,4.00
2019-02-05T18:24:18.907Z,4.00
2019-02-05T18:26:51.754Z,4.00
2019-02-05T18:29:22.691Z,3.90
2019-02-05T18:31:53.705Z,3.90
2019-02-05T18:34:26.092Z,3.90
2019-02-05T18:36:59.973Z,3.90
2019-02-05T18:39:32.565Z,3.80
2019-02-05T18:42:05.120Z,3.80
2019-02-05T18:44:36.266Z,3.80
2019-02-05T18:47:07.371Z,3.80
2019-02-05T18:49:38.384Z,3.80
2019-02-05T18:52:09.616Z,3.80
2019-02-05T18:54:40.697Z,3.80
2019-02-05T18:57:11.692Z,3.80
2019-02-05T18:59:42.949Z,3.70
2019-02-05T19:02:13.959Z,3.70
2019-02-05T19:04:44.908Z,3.70
2019-02-05T19:07:15.854Z,3.70
2019-02-05T19:09:48.090Z,3.60
2019-02-05T19:12:20.728Z,3.60
2019-02-05T19:14:51.788Z,3.60
2019-02-05T19:17:26.261Z,3.60
2019-02-05T19:19:57.179Z,3.60
2019-02-05T19:22:28.409Z,3.70
2019-02-05T19:25:20.055Z,3.80
2019-02-05T19:27:51.299Z,3.90
2019-02-05T19:30:23.712Z,4.00
2019-02-05T19:32:55.869Z,4.10
2019-02-05T19:35:28.190Z,4.10
2019-02-05T19:37:59.219Z,4.20
2019-02-05T19:40:30.264Z,4.20
2019-02-05T19:43:01.436Z,4.20
2019-02-05T19:45:57.813Z,4.30
2019-02-05T19:48:42.787Z,4.30
2019-02-05T19:51:16.166Z,4.30
2019-02-05T19:53:47.561Z,4.30
2019-02-05T19:56:19.000Z,4.30
2019-02-05T19:58:50.089Z,4.40
2019-02-05T20:01:21.187Z,4.40
2019-02-05T20:03:54.002Z,4.40
2019-02-05T20:06:25.076Z,4.40
2019-02-05T20:08:56.286Z,4.40
2019-02-05T20:11:27.554Z,4.50
2019-02-05T20:13:59.124Z,4.50
2019-02-05T20:16:30.384Z,4.40
2019-02-05T20:19:01.547Z,4.50
2019-02-05T20:21:32.611Z,4.40
2019-02-05T20:24:04.468Z,4.40
2019-02-05T20:26:36.302Z,4.50
2019-02-05T20:29:07.957Z,4.50
2019-02-05T20:31:39.229Z,4.50
2019-02-05T20:34:10.476Z,4.50
2019-02-05T20:36:43.594Z,4.50
2019-02-05T20:39:16.510Z,4.50
2019-02-05T20:41:47.670Z,4.50
2019-02-05T20:44:18.731Z,4.40
2019-02-05T20:46:49.871Z,4.50
2019-02-05T20:49:20.911Z,4.40
2019-02-05T20:51:52.224Z,4.40
2019-02-05T20:54:23.506Z,4.40
2019-02-05T20:56:54.478Z,4.40
2019-02-05T20:59:25.610Z,4.40
2019-02-05T21:01:56.517Z,4.40
2019-02-05T21:04:27.622Z,4.40
2019-02-05T21:06:59.769Z,4.40
2019-02-05T21:09:30.991Z,4.40
2019-02-05T21:12:02.196Z,4.30
2019-02-05T21:14:36.118Z,4.30
2019-02-05T21:17:07.391Z,4.30
2019-02-05T21:19:38.597Z,4.30
2019-02-05T21:22:09.615Z,4.30
2019-02-05T21:24:40.680Z,4.30
2019-02-05T21:27:11.780Z,4.30
2019-02-05T21:29:45.185Z,4.20
2019-02-05T21:32:20.308Z,4.20
2019-02-05T21:34:52.908Z,4.20
2019-02-05T21:37:24.949Z,4.10
2019-02-05T21:40:02.560Z,4.10
2019-02-05T21:42:31.701Z,4.10
2019-02-05T21:45:03.051Z,4.00
2019-02-05T21:47:34.247Z,4.00
2019-02-05T21:50:08.259Z,3.90
2019-02-05T21:52:41.072Z,3.90
2019-02-05T21:55:13.068Z,3.80
2019-02-05T21:57:44.211Z,3.80
2019-02-05T22:00:21.042Z,3.80
2019-02-05T22:02:52.259Z,3.80
2019-02-05T22:05:23.640Z,3.70
2019-02-05T22:07:54.956Z,3.70
2019-02-05T22:10:26.104Z,3.70
2019-02-05T22:12:57.602Z,3.60
2019-02-05T22:15:30.066Z,3.60
2019-02-05T22:18:03.662Z,3.60
2019-02-05T22:20:34.847Z,3.50
2019-02-05T22:23:05.992Z,3.50
2019-02-05T22:25:37.195Z,3.40
2019-02-05T22:28:08.248Z,3.40
2019-02-05T22:30:40.792Z,3.30
2019-02-05T22:33:11.702Z,3.30
2019-02-05T22:35:42.565Z,3.20
2019-02-05T22:38:13.791Z,3.20
2019-02-05T22:40:44.705Z,3.10
2019-02-05T22:43:15.993Z,3.10
2019-02-05T22:45:46.933Z,3.00
2019-02-05T22:48:18.028Z,3.00
2019-02-05T22:50:48.988Z,3.00
2019-02-05T22:53:21.381Z,2.90
2019-02-05T22:55:52.545Z,2.90
2019-02-05T22:58:24.072Z,2.80
2019-02-05T23:01:12.124Z,2.80
2019-02-05T23:03:50.217Z,2.80
2019-02-05T23:06:32.880Z,2.80
2019-02-05T23:09:34.021Z,2.80
2019-02-05T23:12:28.627Z,2.70
2019-02-05T23:15:03.498Z,2.60
2019-02-05T23:17:34.762Z,2.60
2019-02-05T23:20:09.330Z,2.50
2019-02-05T23:22:40.475Z,2.50
2019-02-05T23:25:12.458Z,2.50
2019-02-05T23:27:45.210Z,2.50
2019-02-05T23:30:35.195Z,2.50
2019-02-05T23:33:07.202Z,2.40
2019-02-05T23:35:38.089Z,2.40
2019-02-05T23:38:09.080Z,2.30
2019-02-05T23:40:39.964Z,2.30
2019-02-05T23:43:10.894Z,2.30
2019-02-05T23:45:41.785Z,2.30
2019-02-05T23:48:12.963Z,2.30
2019-02-05T23:50:43.908Z,2.40
2019-02-05T23:53:14.806Z,2.40
2019-02-05T23:55:45.679Z,2.40
2019-02-05T23:58:16.712Z,2.40
